sensor_id;sensor_type;location;lat;lon;timestamp;pressure;altitude;pressure_sealevel;temperature;humidity
65013;BME280;51715;39.432;-77.518;2022-12-11T00:01:20;100534.42;;;8.78;29.28
65013;BME280;51715;39.432;-77.518;2022-12-11T00:03:49;100528.45;;;8.95;29.14
65013;BME280;51715;39.432;-77.518;2022-12-11T00:06:21;100524.44;;;9.02;28.77
65013;BME280;51715;39.432;-77.518;2022-12-11T00:08:51;100523.00;;;8.38;30.17
65013;BME280;51715;39.432;-77.518;2022-12-11T00:11:21;100523.27;;;8.20;29.26
65013;BME280;51715;39.432;-77.518;2022-12-11T00:13:50;100527.75;;;8.05;29.35
65013;BME280;51715;39.432;-77.518;2022-12-11T00:16:19;100537.79;;;8.35;29.05
65013;BME280;51715;39.432;-77.518;2022-12-11T00:18:47;100542.29;;;8.55;29.15
65013;BME280;51715;39.432;-77.518;2022-12-11T00:21:15;100544.09;;;8.35;29.05
65013;BME280;51715;39.432;-77.518;2022-12-11T00:23:44;100543.14;;;8.86;28.73
65013;BME280;51715;39.432;-77.518;2022-12-11T00:26:13;100546.34;;;8.04;29.60
65013;BME280;51715;39.432;-77.518;2022-12-11T00:28:42;100549.43;;;8.77;29.80
65013;BME280;51715;39.432;-77.518;2022-12-11T00:31:13;100555.45;;;8.74;29.85
65013;BME280;51715;39.432;-77.518;2022-12-11T00:33:43;100562.15;;;8.88;28.28
65013;BME280;51715;39.432;-77.518;2022-12-11T00:36:12;100563.32;;;8.95;27.58
65013;BME280;51715;39.432;-77.518;2022-12-11T00:38:41;100573.84;;;9.10;28.45
65013;BME280;51715;39.432;-77.518;2022-12-11T00:41:10;100583.24;;;9.43;27.49
65013;BME280;51715;39.432;-77.518;2022-12-11T00:43:40;100588.18;;;9.28;27.80
65013;BME280;51715;39.432;-77.518;2022-12-11T00:46:09;100599.82;;;9.41;28.52
65013;BME280;51715;39.432;-77.518;2022-12-11T00:48:37;100602.96;;;7.71;30.15
65013;BME280;51715;39.432;-77.518;2022-12-11T00:51:06;100597.85;;;8.67;30.21
65013;BME280;51715;39.432;-77.518;2022-12-11T00:53:35;100592.18;;;8.56;30.21
65013;BME280;51715;39.432;-77.518;2022-12-11T00:56:10;100590.03;;;8.38;30.93
65013;BME280;51715;39.432;-77.518;2022-12-11T00:58:39;100582.59;;;8.05;29.89
65013;BME280;51715;39.432;-77.518;2022-12-11T01:01:09;100568.21;;;6.62;30.63
65013;BME280;51715;39.432;-77.518;2022-12-11T01:03:37;100557.30;;;7.10;30.95
65013;BME280;51715;39.432;-77.518;2022-12-11T01:06:09;100550.21;;;6.71;31.27
65013;BME280;51715;39.432;-77.518;2022-12-11T01:08:40;100538.39;;;6.60;31.12
65013;BME280;51715;39.432;-77.518;2022-12-11T01:11:10;100533.08;;;6.73;31.61
65013;BME280;51715;39.432;-77.518;2022-12-11T01:13:40;100534.51;;;6.64;31.09
65013;BME280;51715;39.432;-77.518;2022-12-11T01:16:11;100540.72;;;5.74;33.23
65013;BME280;51715;39.432;-77.518;2022-12-11T01:18:40;100549.02;;;6.63;31.69
65013;BME280;51715;39.432;-77.518;2022-12-11T01:21:10;100546.94;;;6.20;32.21
65013;BME280;51715;39.432;-77.518;2022-12-11T01:23:39;100547.02;;;6.27;32.16
65013;BME280;51715;39.432;-77.518;2022-12-11T01:26:09;100547.20;;;7.21;30.92
65013;BME280;51715;39.432;-77.518;2022-12-11T01:28:37;100552.90;;;7.17;30.60
65013;BME280;51715;39.432;-77.518;2022-12-11T01:31:08;100557.41;;;7.38;30.89
65013;BME280;51715;39.432;-77.518;2022-12-11T01:33:37;100557.60;;;6.53;30.87
65013;BME280;51715;39.432;-77.518;2022-12-11T01:36:08;100555.31;;;6.41;31.72
65013;BME280;51715;39.432;-77.518;2022-12-11T01:38:38;100549.49;;;6.71;31.27
65013;BME280;51715;39.432;-77.518;2022-12-11T01:41:07;100541.61;;;6.96;30.79
65013;BME280;51715;39.432;-77.518;2022-12-11T01:43:53;100532.60;;;5.73;33.37
65013;BME280;51715;39.432;-77.518;2022-12-11T01:46:23;100518.88;;;6.49;32.48
65013;BME280;51715;39.432;-77.518;2022-12-11T01:48:53;100521.32;;;6.28;32.43
65013;BME280;51715;39.432;-77.518;2022-12-11T01:51:22;100511.48;;;6.26;32.12
65013;BME280;51715;39.432;-77.518;2022-12-11T01:53:54;100507.67;;;7.44;30.66
65013;BME280;51715;39.432;-77.518;2022-12-11T01:56:23;100506.58;;;8.06;29.30
65013;BME280;51715;39.432;-77.518;2022-12-11T01:58:56;100504.30;;;8.09;28.64
65013;BME280;51715;39.432;-77.518;2022-12-11T02:01:31;100498.81;;;7.55;29.06
65013;BME280;51715;39.432;-77.518;2022-12-11T02:04:01;100510.27;;;7.36;30.01
65013;BME280;51715;39.432;-77.518;2022-12-11T02:06:34;100531.20;;;7.40;30.03
65013;BME280;51715;39.432;-77.518;2022-12-11T02:09:02;100540.62;;;7.95;28.88
65013;BME280;51715;39.432;-77.518;2022-12-11T02:11:39;100536.32;;;8.62;29.00
65013;BME280;51715;39.432;-77.518;2022-12-11T02:14:16;100535.04;;;8.73;28.87
65013;BME280;51715;39.432;-77.518;2022-12-11T02:16:53;100537.43;;;9.07;28.14
65013;BME280;51715;39.432;-77.518;2022-12-11T02:19:41;100533.05;;;9.26;28.42
65013;BME280;51715;39.432;-77.518;2022-12-11T02:22:15;100544.92;;;8.98;28.55
65013;BME280;51715;39.432;-77.518;2022-12-11T02:24:57;100543.65;;;7.60;29.55
65013;BME280;51715;39.432;-77.518;2022-12-11T02:27:35;100540.31;;;7.23;30.35
65013;BME280;51715;39.432;-77.518;2022-12-11T02:30:10;100536.75;;;5.76;33.25
65013;BME280;51715;39.432;-77.518;2022-12-11T02:32:44;100521.18;;;6.09;32.92
65013;BME280;51715;39.432;-77.518;2022-12-11T02:35:17;100511.69;;;6.23;33.56
65013;BME280;51715;39.432;-77.518;2022-12-11T02:37:50;100507.05;;;5.55;34.38
65013;BME280;51715;39.432;-77.518;2022-12-11T02:40:28;100515.66;;;5.14;36.74
65013;BME280;51715;39.432;-77.518;2022-12-11T02:43:00;100512.11;;;5.48;36.26
65013;BME280;51715;39.432;-77.518;2022-12-11T02:45:31;100510.83;;;5.75;35.72
65013;BME280;51715;39.432;-77.518;2022-12-11T02:48:02;100505.54;;;5.09;36.26
65013;BME280;51715;39.432;-77.518;2022-12-11T02:50:33;100509.39;;;5.64;35.91
65013;BME280;51715;39.432;-77.518;2022-12-11T02:53:04;100518.98;;;5.74;36.39
65013;BME280;51715;39.432;-77.518;2022-12-11T02:55:36;100518.05;;;6.24;34.74
65013;BME280;51715;39.432;-77.518;2022-12-11T02:58:08;100520.21;;;5.85;35.30
65013;BME280;51715;39.432;-77.518;2022-12-11T03:00:39;100525.00;;;6.77;33.82
65013;BME280;51715;39.432;-77.518;2022-12-11T03:03:07;100522.86;;;7.45;33.21
65013;BME280;51715;39.432;-77.518;2022-12-11T03:05:36;100528.50;;;7.28;33.05
65013;BME280;51715;39.432;-77.518;2022-12-11T03:08:05;100525.29;;;7.00;33.58
65013;BME280;51715;39.432;-77.518;2022-12-11T03:10:34;100515.12;;;6.37;34.67
65013;BME280;51715;39.432;-77.518;2022-12-11T03:13:02;100512.46;;;6.53;34.87
65013;BME280;51715;39.432;-77.518;2022-12-11T03:15:37;100513.10;;;7.22;34.05
65013;BME280;51715;39.432;-77.518;2022-12-11T03:18:15;100501.04;;;6.22;35.93
65013;BME280;51715;39.432;-77.518;2022-12-11T03:20:49;100491.21;;;6.55;35.69
65013;BME280;51715;39.432;-77.518;2022-12-11T03:23:27;100485.33;;;6.26;36.15
65013;BME280;51715;39.432;-77.518;2022-12-11T03:26:02;100479.00;;;7.09;35.66
65013;BME280;51715;39.432;-77.518;2022-12-11T03:28:34;100486.60;;;6.57;35.81
65013;BME280;51715;39.432;-77.518;2022-12-11T03:31:10;100494.64;;;5.12;40.03
65013;BME280;51715;39.432;-77.518;2022-12-11T03:33:42;100500.34;;;6.13;37.37
65013;BME280;51715;39.432;-77.518;2022-12-11T03:36:19;100503.17;;;5.58;38.27
65013;BME280;51715;39.432;-77.518;2022-12-11T03:38:52;100499.91;;;5.50;38.78
65013;BME280;51715;39.432;-77.518;2022-12-11T03:41:25;100497.21;;;5.47;38.38
65013;BME280;51715;39.432;-77.518;2022-12-11T03:43:57;100482.67;;;5.85;37.55
65013;BME280;51715;39.432;-77.518;2022-12-11T03:46:29;100480.23;;;6.56;35.93
65013;BME280;51715;39.432;-77.518;2022-12-11T03:49:01;100480.32;;;7.34;34.86
65013;BME280;51715;39.432;-77.518;2022-12-11T03:51:34;100481.02;;;7.16;34.79
65013;BME280;51715;39.432;-77.518;2022-12-11T03:54:03;100482.14;;;6.53;35.31
65013;BME280;51715;39.432;-77.518;2022-12-11T03:56:33;100490.73;;;6.96;35.44
65013;BME280;51715;39.432;-77.518;2022-12-11T03:59:03;100491.18;;;7.98;34.13
65013;BME280;51715;39.432;-77.518;2022-12-11T04:01:32;100497.39;;;6.93;35.18
65013;BME280;51715;39.432;-77.518;2022-12-11T04:04:01;100502.25;;;8.16;33.70
65013;BME280;51715;39.432;-77.518;2022-12-11T04:06:30;100505.90;;;8.12;33.99
65013;BME280;51715;39.432;-77.518;2022-12-11T04:08:58;100509.60;;;8.16;33.27
65013;BME280;51715;39.432;-77.518;2022-12-11T04:11:26;100517.19;;;7.89;33.21
65013;BME280;51715;39.432;-77.518;2022-12-11T04:13:54;100514.44;;;8.15;33.41
65013;BME280;51715;39.432;-77.518;2022-12-11T04:16:22;100509.75;;;8.36;32.43
65013;BME280;51715;39.432;-77.518;2022-12-11T04:18:51;100510.44;;;7.72;34.81
65013;BME280;51715;39.432;-77.518;2022-12-11T04:21:19;100508.83;;;7.69;34.27
65013;BME280;51715;39.432;-77.518;2022-12-11T04:23:48;100503.11;;;7.14;35.14
65013;BME280;51715;39.432;-77.518;2022-12-11T04:26:18;100497.18;;;7.19;35.30
65013;BME280;51715;39.432;-77.518;2022-12-11T04:28:48;100495.34;;;7.53;34.82
65013;BME280;51715;39.432;-77.518;2022-12-11T04:31:19;100482.26;;;7.51;34.73
65013;BME280;51715;39.432;-77.518;2022-12-11T04:33:48;100477.79;;;7.70;34.87
65013;BME280;51715;39.432;-77.518;2022-12-11T04:36:17;100473.42;;;6.30;37.72
65013;BME280;51715;39.432;-77.518;2022-12-11T04:38:46;100476.14;;;6.33;37.26
65013;BME280;51715;39.432;-77.518;2022-12-11T04:41:15;100478.11;;;6.70;37.20
65013;BME280;51715;39.432;-77.518;2022-12-11T04:43:45;100482.66;;;6.06;37.94
65013;BME280;51715;39.432;-77.518;2022-12-11T04:46:16;100477.90;;;5.93;38.67
65013;BME280;51715;39.432;-77.518;2022-12-11T04:48:45;100471.65;;;4.80;41.67
65013;BME280;51715;39.432;-77.518;2022-12-11T04:51:16;100464.55;;;5.64;39.86
65013;BME280;51715;39.432;-77.518;2022-12-11T04:53:44;100452.54;;;5.87;38.98
65013;BME280;51715;39.432;-77.518;2022-12-11T04:56:14;100446.93;;;6.90;37.26
65013;BME280;51715;39.432;-77.518;2022-12-11T04:58:44;100436.70;;;6.05;38.90
65013;BME280;51715;39.432;-77.518;2022-12-11T05:03:55;100424.12;;;4.20;42.09
65013;BME280;51715;39.432;-77.518;2022-12-11T05:06:25;100420.74;;;4.54;42.58
65013;BME280;51715;39.432;-77.518;2022-12-11T05:08:54;100410.72;;;4.85;43.03
65013;BME280;51715;39.432;-77.518;2022-12-11T05:11:23;100412.17;;;4.96;44.47
65013;BME280;51715;39.432;-77.518;2022-12-11T05:13:51;100427.69;;;4.08;46.64
65013;BME280;51715;39.432;-77.518;2022-12-11T05:16:19;100424.87;;;4.67;46.09
65013;BME280;51715;39.432;-77.518;2022-12-11T05:18:48;100428.91;;;4.55;46.00
65013;BME280;51715;39.432;-77.518;2022-12-11T05:21:18;100440.43;;;4.90;44.50
65013;BME280;51715;39.432;-77.518;2022-12-11T05:23:47;100460.23;;;4.50;45.21
65013;BME280;51715;39.432;-77.518;2022-12-11T05:26:17;100464.40;;;4.95;44.93
65013;BME280;51715;39.432;-77.518;2022-12-11T05:28:51;100453.19;;;4.13;45.17
65013;BME280;51715;39.432;-77.518;2022-12-11T05:31:21;100448.85;;;4.89;44.81
65013;BME280;51715;39.432;-77.518;2022-12-11T05:33:52;100445.64;;;4.21;44.54
65013;BME280;51715;39.432;-77.518;2022-12-11T05:36:22;100451.53;;;4.53;45.53
65013;BME280;51715;39.432;-77.518;2022-12-11T05:38:52;100442.70;;;4.11;45.74
65013;BME280;51715;39.432;-77.518;2022-12-11T05:41:24;100441.21;;;4.20;45.89
65013;BME280;51715;39.432;-77.518;2022-12-11T05:43:53;100435.28;;;4.50;45.42
65013;BME280;51715;39.432;-77.518;2022-12-11T05:46:23;100437.56;;;4.27;45.93
65013;BME280;51715;39.432;-77.518;2022-12-11T05:48:53;100432.17;;;4.56;44.62
65013;BME280;51715;39.432;-77.518;2022-12-11T05:51:22;100429.35;;;4.23;45.55
65013;BME280;51715;39.432;-77.518;2022-12-11T05:53:52;100431.84;;;5.15;42.79
65013;BME280;51715;39.432;-77.518;2022-12-11T05:56:22;100426.08;;;5.17;43.72
65013;BME280;51715;39.432;-77.518;2022-12-11T05:58:50;100417.68;;;5.22;43.09
65013;BME280;51715;39.432;-77.518;2022-12-11T06:01:22;100422.89;;;5.24;42.78
65013;BME280;51715;39.432;-77.518;2022-12-11T06:03:51;100423.22;;;5.42;42.58
65013;BME280;51715;39.432;-77.518;2022-12-11T06:06:19;100420.20;;;5.36;41.95
65013;BME280;51715;39.432;-77.518;2022-12-11T06:08:50;100422.31;;;5.74;41.73
65013;BME280;51715;39.432;-77.518;2022-12-11T06:11:18;100422.38;;;5.97;43.44
65013;BME280;51715;39.432;-77.518;2022-12-11T06:13:46;100420.51;;;6.13;41.42
65013;BME280;51715;39.432;-77.518;2022-12-11T06:16:15;100425.50;;;6.62;39.75
65013;BME280;51715;39.432;-77.518;2022-12-11T06:18:45;100429.82;;;6.94;38.95
65013;BME280;51715;39.432;-77.518;2022-12-11T06:21:14;100430.56;;;6.61;40.29
65013;BME280;51715;39.432;-77.518;2022-12-11T06:23:44;100434.88;;;6.98;39.34
65013;BME280;51715;39.432;-77.518;2022-12-11T06:26:14;100434.64;;;7.74;38.15
65013;BME280;51715;39.432;-77.518;2022-12-11T06:28:43;100435.39;;;7.51;39.44
65013;BME280;51715;39.432;-77.518;2022-12-11T06:31:12;100432.42;;;7.47;38.16
65013;BME280;51715;39.432;-77.518;2022-12-11T06:33:41;100422.82;;;7.72;38.42
65013;BME280;51715;39.432;-77.518;2022-12-11T06:36:11;100412.71;;;7.69;37.96
65013;BME280;51715;39.432;-77.518;2022-12-11T06:38:40;100419.93;;;7.90;38.07
65013;BME280;51715;39.432;-77.518;2022-12-11T06:41:10;100425.88;;;8.13;37.60
65013;BME280;51715;39.432;-77.518;2022-12-11T06:43:39;100427.57;;;7.15;39.24
65013;BME280;51715;39.432;-77.518;2022-12-11T06:46:09;100431.31;;;7.25;39.25
65013;BME280;51715;39.432;-77.518;2022-12-11T06:48:39;100437.27;;;6.72;39.86
65013;BME280;51715;39.432;-77.518;2022-12-11T06:51:09;100435.75;;;7.50;39.02
65013;BME280;51715;39.432;-77.518;2022-12-11T06:53:39;100441.06;;;8.31;37.65
65013;BME280;51715;39.432;-77.518;2022-12-11T06:56:11;100445.27;;;7.95;37.66
65013;BME280;51715;39.432;-77.518;2022-12-11T06:58:40;100452.74;;;8.75;37.90
65013;BME280;51715;39.432;-77.518;2022-12-11T07:01:15;100459.03;;;7.99;38.14
65013;BME280;51715;39.432;-77.518;2022-12-11T07:03:44;100452.72;;;8.42;36.94
65013;BME280;51715;39.432;-77.518;2022-12-11T07:06:13;100452.28;;;8.47;37.04
65013;BME280;51715;39.432;-77.518;2022-12-11T07:08:42;100456.73;;;8.74;36.66
65013;BME280;51715;39.432;-77.518;2022-12-11T07:11:13;100451.39;;;9.00;35.84
65013;BME280;51715;39.432;-77.518;2022-12-11T07:13:42;100453.31;;;9.03;35.73
65013;BME280;51715;39.432;-77.518;2022-12-11T07:16:12;100452.30;;;9.13;35.75
65013;BME280;51715;39.432;-77.518;2022-12-11T07:18:43;100456.59;;;9.26;35.42
65013;BME280;51715;39.432;-77.518;2022-12-11T07:21:13;100466.21;;;8.96;36.10
65013;BME280;51715;39.432;-77.518;2022-12-11T07:23:43;100471.45;;;9.05;35.99
65013;BME280;51715;39.432;-77.518;2022-12-11T07:26:13;100464.87;;;8.73;35.92
65013;BME280;51715;39.432;-77.518;2022-12-11T07:28:41;100458.41;;;8.89;36.45
65013;BME280;51715;39.432;-77.518;2022-12-11T07:31:13;100451.50;;;8.80;36.88
65013;BME280;51715;39.432;-77.518;2022-12-11T07:33:42;100445.47;;;8.47;37.36
65013;BME280;51715;39.432;-77.518;2022-12-11T07:36:27;100447.40;;;7.74;37.93
65013;BME280;51715;39.432;-77.518;2022-12-11T07:38:56;100439.69;;;8.16;38.35
65013;BME280;51715;39.432;-77.518;2022-12-11T07:41:24;100440.36;;;7.97;38.26
65013;BME280;51715;39.432;-77.518;2022-12-11T07:43:53;100438.72;;;7.90;37.80
65013;BME280;51715;39.432;-77.518;2022-12-11T07:46:23;100428.96;;;8.04;37.67
65013;BME280;51715;39.432;-77.518;2022-12-11T07:48:52;100419.50;;;8.54;36.97
65013;BME280;51715;39.432;-77.518;2022-12-11T07:51:23;100410.67;;;7.98;37.11
65013;BME280;51715;39.432;-77.518;2022-12-11T07:53:52;100402.38;;;7.47;38.25
65013;BME280;51715;39.432;-77.518;2022-12-11T07:56:21;100397.69;;;6.26;40.78
65013;BME280;51715;39.432;-77.518;2022-12-11T07:58:50;100397.28;;;6.81;39.23
65013;BME280;51715;39.432;-77.518;2022-12-11T08:01:20;100395.17;;;5.87;41.17
65013;BME280;51715;39.432;-77.518;2022-12-11T08:03:48;100392.98;;;6.39;40.61
65013;BME280;51715;39.432;-77.518;2022-12-11T08:06:18;100379.73;;;5.99;41.01
65013;BME280;51715;39.432;-77.518;2022-12-11T08:08:47;100376.49;;;6.03;41.84
65013;BME280;51715;39.432;-77.518;2022-12-11T08:11:15;100373.48;;;4.78;44.07
65013;BME280;51715;39.432;-77.518;2022-12-11T08:13:44;100377.00;;;5.48;43.06
65013;BME280;51715;39.432;-77.518;2022-12-11T08:16:14;100387.05;;;5.60;42.98
65013;BME280;51715;39.432;-77.518;2022-12-11T08:18:43;100388.70;;;5.97;42.30
65013;BME280;51715;39.432;-77.518;2022-12-11T08:21:14;100396.10;;;5.50;43.05
65013;BME280;51715;39.432;-77.518;2022-12-11T08:23:43;100383.46;;;4.62;44.29
65013;BME280;51715;39.432;-77.518;2022-12-11T08:26:14;100396.74;;;5.70;43.16
65013;BME280;51715;39.432;-77.518;2022-12-11T08:28:42;100398.22;;;5.59;42.86
65013;BME280;51715;39.432;-77.518;2022-12-11T08:31:13;100386.75;;;6.02;42.34
65013;BME280;51715;39.432;-77.518;2022-12-11T08:33:42;100384.66;;;6.29;41.82
65013;BME280;51715;39.432;-77.518;2022-12-11T08:36:12;100397.40;;;6.92;40.35
65013;BME280;51715;39.432;-77.518;2022-12-11T08:38:41;100397.95;;;7.25;39.52
65013;BME280;51715;39.432;-77.518;2022-12-11T08:41:10;100396.67;;;7.49;39.25
65013;BME280;51715;39.432;-77.518;2022-12-11T08:43:39;100393.74;;;7.86;38.27
65013;BME280;51715;39.432;-77.518;2022-12-11T08:46:09;100392.13;;;7.92;39.12
65013;BME280;51715;39.432;-77.518;2022-12-11T08:48:39;100392.45;;;7.31;40.19
65013;BME280;51715;39.432;-77.518;2022-12-11T08:51:12;100389.72;;;8.27;38.81
65013;BME280;51715;39.432;-77.518;2022-12-11T08:53:40;100390.41;;;8.08;38.78
65013;BME280;51715;39.432;-77.518;2022-12-11T08:56:15;100387.89;;;8.33;38.10
65013;BME280;51715;39.432;-77.518;2022-12-11T08:58:45;100383.72;;;8.82;38.04
65013;BME280;51715;39.432;-77.518;2022-12-11T09:01:15;100372.11;;;8.67;37.37
65013;BME280;51715;39.432;-77.518;2022-12-11T09:03:44;100365.91;;;8.89;37.25
65013;BME280;51715;39.432;-77.518;2022-12-11T09:06:14;100361.95;;;9.34;37.26
65013;BME280;51715;39.432;-77.518;2022-12-11T09:08:44;100361.54;;;9.19;37.20
65013;BME280;51715;39.432;-77.518;2022-12-11T09:11:16;100353.14;;;9.00;36.72
65013;BME280;51715;39.432;-77.518;2022-12-11T09:13:44;100359.84;;;9.23;36.69
65013;BME280;51715;39.432;-77.518;2022-12-11T09:16:15;100361.20;;;8.68;37.43
65013;BME280;51715;39.432;-77.518;2022-12-11T09:18:46;100355.43;;;9.27;36.89
65013;BME280;51715;39.432;-77.518;2022-12-11T09:21:17;100344.15;;;8.32;38.43
65013;BME280;51715;39.432;-77.518;2022-12-11T09:23:46;100337.76;;;8.36;38.39
65013;BME280;51715;39.432;-77.518;2022-12-11T09:26:16;100333.46;;;8.87;37.87
65013;BME280;51715;39.432;-77.518;2022-12-11T09:28:45;100328.71;;;8.83;37.60
65013;BME280;51715;39.432;-77.518;2022-12-11T09:31:17;100329.88;;;8.83;37.63
65013;BME280;51715;39.432;-77.518;2022-12-11T09:33:46;100328.53;;;8.20;38.48
65013;BME280;51715;39.432;-77.518;2022-12-11T09:36:15;100325.79;;;8.46;37.95
65013;BME280;51715;39.432;-77.518;2022-12-11T09:38:44;100318.52;;;8.82;37.80
65013;BME280;51715;39.432;-77.518;2022-12-11T09:41:31;100320.76;;;8.48;38.31
65013;BME280;51715;39.432;-77.518;2022-12-11T09:44:06;100327.38;;;8.07;39.09
65013;BME280;51715;39.432;-77.518;2022-12-11T09:46:40;100331.22;;;8.14;40.09
65013;BME280;51715;39.432;-77.518;2022-12-11T09:49:17;100340.64;;;6.32;42.89
65013;BME280;51715;39.432;-77.518;2022-12-11T09:51:52;100342.81;;;7.28;40.71
65013;BME280;51715;39.432;-77.518;2022-12-11T09:54:26;100344.25;;;7.89;40.16
65013;BME280;51715;39.432;-77.518;2022-12-11T09:57:02;100340.03;;;8.00;40.35
65013;BME280;51715;39.432;-77.518;2022-12-11T09:59:42;100335.08;;;7.29;41.47
65013;BME280;51715;39.432;-77.518;2022-12-11T10:02:26;100325.52;;;7.97;40.68
65013;BME280;51715;39.432;-77.518;2022-12-11T10:05:09;100318.47;;;7.90;40.28
65013;BME280;51715;39.432;-77.518;2022-12-11T10:07:49;100320.61;;;8.54;39.74
65013;BME280;51715;39.432;-77.518;2022-12-11T10:10:24;100332.97;;;7.65;40.78
65013;BME280;51715;39.432;-77.518;2022-12-11T10:13:03;100324.80;;;7.82;41.22
65013;BME280;51715;39.432;-77.518;2022-12-11T10:15:38;100319.68;;;7.77;41.61
65013;BME280;51715;39.432;-77.518;2022-12-11T10:18:12;100328.78;;;8.19;40.60
65013;BME280;51715;39.432;-77.518;2022-12-11T10:20:43;100321.59;;;8.42;40.38
65013;BME280;51715;39.432;-77.518;2022-12-11T10:23:16;100317.55;;;8.54;39.75
65013;BME280;51715;39.432;-77.518;2022-12-11T10:25:50;100322.71;;;8.23;40.27
65013;BME280;51715;39.432;-77.518;2022-12-11T10:28:21;100321.35;;;8.34;39.99
65013;BME280;51715;39.432;-77.518;2022-12-11T10:30:56;100312.16;;;8.23;40.44
65013;BME280;51715;39.432;-77.518;2022-12-11T10:33:35;100301.08;;;8.23;40.69
65013;BME280;51715;39.432;-77.518;2022-12-11T10:36:08;100293.33;;;8.34;40.17
65013;BME280;51715;39.432;-77.518;2022-12-11T10:38:42;100293.10;;;8.58;39.99
65013;BME280;51715;39.432;-77.518;2022-12-11T10:41:13;100293.36;;;9.10;39.27
65013;BME280;51715;39.432;-77.518;2022-12-11T10:43:43;100291.75;;;8.61;39.48
65013;BME280;51715;39.432;-77.518;2022-12-11T10:46:16;100285.95;;;8.02;41.94
65013;BME280;51715;39.432;-77.518;2022-12-11T10:48:47;100280.97;;;7.99;41.88
65013;BME280;51715;39.432;-77.518;2022-12-11T10:51:15;100285.38;;;8.47;41.06
65013;BME280;51715;39.432;-77.518;2022-12-11T10:53:50;100285.21;;;8.58;40.44
65013;BME280;51715;39.432;-77.518;2022-12-11T10:56:25;100293.05;;;8.86;39.89
65013;BME280;51715;39.432;-77.518;2022-12-11T10:58:55;100305.13;;;7.79;42.00
65013;BME280;51715;39.432;-77.518;2022-12-11T11:01:26;100299.40;;;8.29;41.39
65013;BME280;51715;39.432;-77.518;2022-12-11T11:03:59;100293.07;;;7.98;41.90
65013;BME280;51715;39.432;-77.518;2022-12-11T11:06:30;100296.82;;;7.77;42.85
65013;BME280;51715;39.432;-77.518;2022-12-11T11:08:59;100302.45;;;8.13;41.82
65013;BME280;51715;39.432;-77.518;2022-12-11T11:11:30;100305.16;;;8.36;41.40
65013;BME280;51715;39.432;-77.518;2022-12-11T11:14:12;100304.19;;;8.38;40.92
65013;BME280;51715;39.432;-77.518;2022-12-11T11:16:43;100298.49;;;7.94;41.88
65013;BME280;51715;39.432;-77.518;2022-12-11T11:19:20;100294.70;;;8.65;40.44
65013;BME280;51715;39.432;-77.518;2022-12-11T11:21:50;100293.25;;;8.78;40.39
65013;BME280;51715;39.432;-77.518;2022-12-11T11:24:28;100294.88;;;8.81;40.75
65013;BME280;51715;39.432;-77.518;2022-12-11T11:26:57;100294.87;;;8.95;40.64
65013;BME280;51715;39.432;-77.518;2022-12-11T11:29:29;100299.38;;;8.76;41.52
65013;BME280;51715;39.432;-77.518;2022-12-11T11:32:11;100299.12;;;8.64;41.19
65013;BME280;51715;39.432;-77.518;2022-12-11T11:34:41;100294.79;;;8.79;40.99
65013;BME280;51715;39.432;-77.518;2022-12-11T11:37:26;100287.90;;;8.88;40.99
65013;BME280;51715;39.432;-77.518;2022-12-11T11:40:02;100283.62;;;8.95;41.03
65013;BME280;51715;39.432;-77.518;2022-12-11T11:42:41;100278.42;;;8.93;41.14
65013;BME280;51715;39.432;-77.518;2022-12-11T11:45:15;100275.14;;;8.76;41.72
65013;BME280;51715;39.432;-77.518;2022-12-11T11:47:54;100265.02;;;8.50;41.24
65013;BME280;51715;39.432;-77.518;2022-12-11T11:50:29;100258.53;;;8.92;41.57
65013;BME280;51715;39.432;-77.518;2022-12-11T11:53:06;100256.17;;;8.95;41.53
65013;BME280;51715;39.432;-77.518;2022-12-11T11:55:45;100253.40;;;8.70;41.42
65013;BME280;51715;39.432;-77.518;2022-12-11T11:58:17;100242.26;;;8.74;41.52
65013;BME280;51715;39.432;-77.518;2022-12-11T12:00:47;100235.12;;;8.78;42.12
65013;BME280;51715;39.432;-77.518;2022-12-11T12:03:18;100230.15;;;7.53;44.54
65013;BME280;51715;39.432;-77.518;2022-12-11T12:05:52;100227.73;;;7.85;44.14
65013;BME280;51715;39.432;-77.518;2022-12-11T12:08:31;100227.51;;;7.21;45.62
65013;BME280;51715;39.432;-77.518;2022-12-11T12:11:06;100238.15;;;7.59;45.38
65013;BME280;51715;39.432;-77.518;2022-12-11T12:13:51;100246.80;;;7.20;45.04
65013;BME280;51715;39.432;-77.518;2022-12-11T12:16:27;100254.11;;;7.68;44.57
65013;BME280;51715;39.432;-77.518;2022-12-11T12:19:14;100256.58;;;7.35;44.20
65013;BME280;51715;39.432;-77.518;2022-12-11T12:21:46;100247.11;;;7.54;44.62
65013;BME280;51715;39.432;-77.518;2022-12-11T12:24:26;100240.48;;;7.47;46.28
65013;BME280;51715;39.432;-77.518;2022-12-11T12:27:00;100230.64;;;7.64;45.44
65013;BME280;51715;39.432;-77.518;2022-12-11T12:29:43;100228.24;;;7.75;44.93
65013;BME280;51715;39.432;-77.518;2022-12-11T12:32:21;100235.05;;;8.07;44.56
65013;BME280;51715;39.432;-77.518;2022-12-11T12:35:01;100247.08;;;8.22;44.43
65013;BME280;51715;39.432;-77.518;2022-12-11T12:37:45;100256.80;;;6.89;47.38
65013;BME280;51715;39.432;-77.518;2022-12-11T12:40:22;100251.93;;;7.54;45.41
65013;BME280;51715;39.432;-77.518;2022-12-11T12:43:04;100255.80;;;8.34;44.60
65013;BME280;51715;39.432;-77.518;2022-12-11T12:45:39;100261.68;;;8.24;43.77
65013;BME280;51715;39.432;-77.518;2022-12-11T12:48:11;100262.00;;;8.51;43.27
65013;BME280;51715;39.432;-77.518;2022-12-11T12:50:43;100261.04;;;8.18;42.98
65013;BME280;51715;39.432;-77.518;2022-12-11T12:53:16;100266.23;;;8.11;44.42
65013;BME280;51715;39.432;-77.518;2022-12-11T12:55:47;100262.18;;;8.29;43.62
65013;BME280;51715;39.432;-77.518;2022-12-11T12:58:27;100255.47;;;8.49;43.33
65013;BME280;51715;39.432;-77.518;2022-12-11T13:01:08;100248.06;;;8.71;43.05
65013;BME280;51715;39.432;-77.518;2022-12-11T13:03:49;100233.14;;;8.42;43.29
65013;BME280;51715;39.432;-77.518;2022-12-11T13:06:30;100220.85;;;7.96;44.47